Time;durP1;ratioP1;P1;durP2;ratioP2;P2;SDS_P1;SDS_P2;PMS_P1;PMS_P2;Temp;Humidity;BMP_temperature;BMP_pressure;BME280_temperature;BME280_humidity;BME280_pressure;Samples;Min_cycle;Max_cycle;Signal;HPM_P1;HPM_P2
2021/05/25 00:01:38;;;;;;;2.95;2.20;;;;;;;;;;773171;180;919642;-72
2021/05/25 00:04:04;;;;;;;7.30;2.13;;;;;;;;;;775866;181;918742;-71
2021/05/25 00:06:29;;;;;;;3.10;2.40;;;;;;;;;;773576;181;919795;-72
2021/05/25 00:08:55;;;;;;;2.67;2.00;;;;;;;;;;773079;181;920664;-71
2021/05/25 00:11:21;;;;;;;3.10;2.20;;;;;;;;;;774799;180;917776;-71
2021/05/25 00:13:47;;;;;;;3.60;2.30;;;;;;;;;;771942;180;920436;-72
2021/05/25 00:16:13;;;;;;;4.20;2.40;;;;;;;;;;774374;180;920388;-72
2021/05/25 00:18:39;;;;;;;3.63;2.47;;;;;;;;;;777926;180;917783;-70
2021/05/25 00:21:04;;;;;;;7.70;2.40;;;;;;;;;;772308;180;917925;-70
2021/05/25 00:23:30;;;;;;;4.82;2.80;;;;;;;;;;771783;177;1125402;-70
2021/05/25 00:25:56;;;;;;;4.50;2.37;;;;;;;;;;774066;180;919249;-69
2021/05/25 00:28:23;;;;;;;3.03;2.20;;;;;;;;;;772819;181;920321;-69
2021/05/25 00:30:48;;;;;;;4.80;2.77;;;;;;;;;;769912;180;918715;-70
2021/05/25 00:33:14;;;;;;;4.10;2.50;;;;;;;;;;775484;180;619116;-69
2021/05/25 00:35:40;;;;;;;8.37;2.93;;;;;;;;;;781343;180;623419;-69
2021/05/25 00:38:05;;;;;;;3.10;2.20;;;;;;;;;;777892;180;623143;-69
2021/05/25 00:40:31;;;;;;;3.65;2.58;;;;;;;;;;780070;178;623077;-71
2021/05/25 00:42:57;;;;;;;4.03;2.57;;;;;;;;;;781108;180;710093;-71
2021/05/25 00:45:23;;;;;;;4.60;2.53;;;;;;;;;;777875;179;628529;-69
2021/05/25 00:47:49;;;;;;;4.83;2.90;;;;;;;;;;769978;180;618518;-70
2021/05/25 00:50:15;;;;;;;4.90;2.80;;;;;;;;;;782667;178;633718;-68
2021/05/25 00:52:46;;;;;;;3.90;2.90;;;;;;;;;;777050;180;629609;-69
2021/05/25 00:55:12;;;;;;;4.77;3.40;;;;;;;;;;777152;177;628374;-70
2021/05/25 00:57:38;;;;;;;4.63;3.20;;;;;;;;;;774570;179;620338;-70
2021/05/25 01:00:05;;;;;;;3.77;3.23;;;;;;;;;;775752;180;1172339;-70
2021/05/25 01:02:30;;;;;;;6.00;3.47;;;;;;;;;;779210;178;919409;-71
2021/05/25 01:04:56;;;;;;;4.43;3.10;;;;;;;;;;775182;180;927814;-69
2021/05/25 01:07:22;;;;;;;3.90;3.20;;;;;;;;;;775968;180;919641;-69
2021/05/25 01:09:48;;;;;;;3.47;2.90;;;;;;;;;;777424;180;919323;-70
2021/05/25 01:12:14;;;;;;;5.73;3.00;;;;;;;;;;773943;180;937441;-69
2021/05/25 01:14:46;;;;;;;13.50;3.47;;;;;;;;;;773955;177;937054;-69
2021/05/25 01:17:05;;;;;;;5.10;3.10;;;;;;;;;;776150;178;919596;-70
2021/05/25 01:19:31;;;;;;;6.40;3.03;;;;;;;;;;767236;180;919439;-70
2021/05/25 01:21:57;;;;;;;4.70;3.60;;;;;;;;;;769566;180;919358;-69
2021/05/25 01:24:23;;;;;;;4.97;3.37;;;;;;;;;;777783;180;919840;-69
2021/05/25 01:26:49;;;;;;;4.07;3.50;;;;;;;;;;765811;180;918807;-69
2021/05/25 01:29:15;;;;;;;8.43;3.73;;;;;;;;;;774184;180;919187;-68
2021/05/25 01:31:40;;;;;;;6.20;3.43;;;;;;;;;;776477;180;919339;-69
2021/05/25 01:34:06;;;;;;;5.20;3.27;;;;;;;;;;774694;178;918947;-70
2021/05/25 01:36:32;;;;;;;7.23;3.27;;;;;;;;;;771390;178;919528;-70
2021/05/25 01:38:58;;;;;;;5.37;3.50;;;;;;;;;;777314;180;919106;-70
2021/05/25 01:41:24;;;;;;;4.90;3.60;;;;;;;;;;772392;179;919453;-70
2021/05/25 01:43:50;;;;;;;4.63;3.57;;;;;;;;;;773518;180;919161;-70
2021/05/25 01:46:16;;;;;;;3.77;2.83;;;;;;;;;;774445;180;919091;-71
2021/05/25 01:48:41;;;;;;;4.63;3.20;;;;;;;;;;779052;180;919306;-70
2021/05/25 01:51:07;;;;;;;4.03;3.20;;;;;;;;;;763683;181;919994;-71
2021/05/25 01:53:33;;;;;;;7.00;2.90;;;;;;;;;;773466;180;626517;-71
2021/05/25 01:55:59;;;;;;;7.33;3.33;;;;;;;;;;772426;180;623054;-70
2021/05/25 01:58:25;;;;;;;5.77;3.40;;;;;;;;;;770984;180;919392;-71
2021/05/25 02:00:51;;;;;;;4.13;3.30;;;;;;;;;;772575;180;918907;-71
2021/05/25 02:03:17;;;;;;;11.73;3.50;;;;;;;;;;779213;180;919609;-71
2021/05/25 02:05:43;;;;;;;3.90;3.43;;;;;;;;;;771803;180;918427;-70
2021/05/25 02:08:09;;;;;;;5.10;4.07;;;;;;;;;;772630;180;918766;-70
2021/05/25 02:10:35;;;;;;;6.10;3.93;;;;;;;;;;773745;180;919284;-70
2021/05/25 02:13:01;;;;;;;4.43;3.80;;;;;;;;;;764323;181;625581;-70
2021/05/25 02:15:26;;;;;;;5.17;4.53;;;;;;;;;;778570;180;622470;-71
2021/05/25 02:17:52;;;;;;;6.95;3.90;;;;;;;;;;775346;177;918211;-71
2021/05/25 02:20:18;;;;;;;4.47;3.30;;;;;;;;;;780584;178;917470;-71
2021/05/25 02:22:44;;;;;;;5.70;3.93;;;;;;;;;;774099;180;920181;-71
2021/05/25 02:25:10;;;;;;;5.10;3.50;;;;;;;;;;767125;178;1019823;-70
2021/05/25 02:27:36;;;;;;;8.03;3.50;;;;;;;;;;779082;180;870571;-70
2021/05/25 02:30:02;;;;;;;4.43;3.30;;;;;;;;;;774185;180;919473;-71
2021/05/25 02:32:27;;;;;;;6.13;4.23;;;;;;;;;;773535;181;918773;-73
2021/05/25 02:34:53;;;;;;;7.60;4.10;;;;;;;;;;776215;180;918607;-71
2021/05/25 02:37:19;;;;;;;6.90;3.50;;;;;;;;;;765764;179;919318;-71
2021/05/25 02:39:45;;;;;;;6.13;4.30;;;;;;;;;;772585;178;919017;-72
2021/05/25 02:42:11;;;;;;;6.17;4.37;;;;;;;;;;773114;180;927345;-71
2021/05/25 02:44:37;;;;;;;3.90;3.20;;;;;;;;;;780182;180;918995;-71
2021/05/25 02:47:02;;;;;;;6.00;4.20;;;;;;;;;;773936;180;918950;-71
2021/05/25 02:49:28;;;;;;;7.37;4.33;;;;;;;;;;771785;180;930429;-71
2021/05/25 02:51:54;;;;;;;5.93;4.53;;;;;;;;;;777723;180;879107;-70
2021/05/25 02:54:20;;;;;;;5.73;4.60;;;;;;;;;;772322;180;958236;-72
2021/05/25 02:56:46;;;;;;;5.33;3.90;;;;;;;;;;776522;180;898297;-71
2021/05/25 02:59:12;;;;;;;7.37;5.00;;;;;;;;;;779477;180;631647;-70
2021/05/25 03:01:37;;;;;;;5.47;4.87;;;;;;;;;;772997;179;918384;-70
2021/05/25 03:04:03;;;;;;;8.13;4.95;;;;;;;;;;771141;180;919151;-71
2021/05/25 03:06:29;;;;;;;5.20;4.67;;;;;;;;;;774128;180;918898;-70
2021/05/25 03:08:55;;;;;;;5.63;4.73;;;;;;;;;;774839;180;918734;-71
2021/05/25 03:11:21;;;;;;;5.33;4.10;;;;;;;;;;773787;178;919181;-70
2021/05/25 03:13:47;;;;;;;10.20;4.43;;;;;;;;;;770300;180;919068;-70
2021/05/25 03:16:12;;;;;;;7.00;4.47;;;;;;;;;;780563;180;918538;-71
2021/05/25 03:18:38;;;;;;;6.60;5.97;;;;;;;;;;774023;178;919259;-70
2021/05/25 03:21:04;;;;;;;7.57;4.10;;;;;;;;;;766200;180;1666838;-71
2021/05/25 03:23:30;;;;;;;5.80;5.20;;;;;;;;;;776088;180;919827;-70
2021/05/25 03:25:59;;;;;;;5.93;4.77;;;;;;;;;;774928;177;919656;-70
2021/05/25 03:28:22;;;;;;;13.63;6.30;;;;;;;;;;772117;180;998715;-70
2021/05/25 03:30:47;;;;;;;5.23;4.27;;;;;;;;;;779065;179;918398;-72
2021/05/25 03:33:13;;;;;;;7.47;5.17;;;;;;;;;;771165;180;919312;-70
2021/05/25 03:35:39;;;;;;;7.13;5.20;;;;;;;;;;770919;181;918546;-71
2021/05/25 03:38:05;;;;;;;5.50;4.90;;;;;;;;;;773362;180;922040;-70
2021/05/25 03:40:31;;;;;;;5.70;5.03;;;;;;;;;;778363;177;871854;-71
2021/05/25 03:42:57;;;;;;;7.07;5.23;;;;;;;;;;778099;180;889500;-71
2021/05/25 03:45:22;;;;;;;7.40;6.07;;;;;;;;;;771218;180;919438;-70
2021/05/25 03:47:48;;;;;;;9.70;5.90;;;;;;;;;;780474;180;915569;-70
2021/05/25 03:50:14;;;;;;;5.73;4.90;;;;;;;;;;777982;180;622185;-71
2021/05/25 03:52:40;;;;;;;8.77;6.00;;;;;;;;;;778570;179;651639;-71
2021/05/25 03:55:09;;;;;;;7.07;5.20;;;;;;;;;;781089;178;629754;-71
2021/05/25 04:00:13;;;;;;;6.85;5.43;;;;;;;;;;772141;178;918208;-71
2021/05/25 04:02:39;;;;;;;4.82;4.18;;;;;;;;;;771050;180;918239;-71
2021/05/25 04:05:05;;;;;;;5.70;4.67;;;;;;;;;;777600;180;919300;-73
2021/05/25 04:07:31;;;;;;;10.43;4.83;;;;;;;;;;777335;180;815015;-71
2021/05/25 04:09:57;;;;;;;6.07;4.90;;;;;;;;;;772832;177;640200;-71
2021/05/25 04:12:23;;;;;;;7.30;4.63;;;;;;;;;;775096;180;614765;-70
2021/05/25 04:14:49;;;;;;;8.80;5.37;;;;;;;;;;779124;180;619720;-71
2021/05/25 04:17:15;;;;;;;5.70;5.10;;;;;;;;;;778735;178;635871;-70
2021/05/25 04:19:40;;;;;;;7.93;5.50;;;;;;;;;;773776;180;635282;-71
2021/05/25 04:22:06;;;;;;;7.00;5.70;;;;;;;;;;782160;180;644395;-70
2021/05/25 04:24:32;;;;;;;6.13;5.53;;;;;;;;;;778005;180;633685;-71
2021/05/25 04:26:58;;;;;;;9.13;6.60;;;;;;;;;;769299;180;918920;-70
2021/05/25 04:29:24;;;;;;;7.10;5.80;;;;;;;;;;778283;180;918782;-70
2021/05/25 04:31:50;;;;;;;11.43;6.63;;;;;;;;;;771621;180;918532;-71
2021/05/25 04:34:15;;;;;;;7.45;6.28;;;;;;;;;;770140;180;915541;-71
2021/05/25 04:36:41;;;;;;;7.83;7.03;;;;;;;;;;778553;178;918933;-69
2021/05/25 04:39:07;;;;;;;8.47;7.00;;;;;;;;;;770590;178;919049;-70
2021/05/25 04:41:33;;;;;;;11.33;7.00;;;;;;;;;;772587;177;923232;-71
2021/05/25 04:43:59;;;;;;;8.33;7.23;;;;;;;;;;776631;179;919279;-72
2021/05/25 04:46:25;;;;;;;11.27;7.77;;;;;;;;;;781211;180;919288;-70
2021/05/25 04:48:50;;;;;;;9.33;7.13;;;;;;;;;;775635;180;919223;-71
2021/05/25 04:51:17;;;;;;;10.03;7.57;;;;;;;;;;774936;178;972598;-72
2021/05/25 04:53:42;;;;;;;14.90;8.57;;;;;;;;;;782473;179;636445;-71
2021/05/25 04:56:09;;;;;;;12.60;10.20;;;;;;;;;;776724;180;627333;-73
2021/05/25 04:58:35;;;;;;;12.43;9.97;;;;;;;;;;779711;180;633608;-71
2021/05/25 05:01:01;;;;;;;14.30;10.53;;;;;;;;;;780332;180;630034;-71
2021/05/25 05:03:27;;;;;;;13.97;10.30;;;;;;;;;;772800;180;918942;-71
2021/05/25 05:05:54;;;;;;;12.50;9.90;;;;;;;;;;772982;180;919567;-71
2021/05/25 05:08:18;;;;;;;18.43;11.03;;;;;;;;;;774788;181;919551;-71
2021/05/25 05:10:44;;;;;;;12.20;10.90;;;;;;;;;;778434;178;903287;-72
2021/05/25 05:13:10;;;;;;;10.90;9.60;;;;;;;;;;759778;180;2501418;-71
2021/05/25 05:15:36;;;;;;;12.60;10.23;;;;;;;;;;771654;180;917944;-71
2021/05/25 05:18:02;;;;;;;12.77;10.90;;;;;;;;;;781826;180;629332;-72
2021/05/25 05:20:28;;;;;;;12.13;10.83;;;;;;;;;;775536;179;925810;-71
2021/05/25 05:22:54;;;;;;;17.07;12.10;;;;;;;;;;772265;180;917292;-70
2021/05/25 05:25:19;;;;;;;12.80;10.50;;;;;;;;;;780310;180;913977;-71
2021/05/25 05:27:45;;;;;;;15.00;12.27;;;;;;;;;;773287;180;914172;-71
2021/05/25 05:30:12;;;;;;;14.50;11.97;;;;;;;;;;771040;177;918131;-71
2021/05/25 05:32:37;;;;;;;16.30;11.93;;;;;;;;;;773905;180;896265;-71
2021/05/25 05:35:05;;;;;;;15.20;11.87;;;;;;;;;;773071;178;911976;-72
2021/05/25 05:37:30;;;;;;;14.40;12.87;;;;;;;;;;771206;180;915714;-71
2021/05/25 05:39:56;;;;;;;15.53;12.60;;;;;;;;;;771409;180;1004104;-71
2021/05/25 05:42:21;;;;;;;21.10;14.43;;;;;;;;;;775005;179;919336;-72
2021/05/25 05:44:48;;;;;;;16.07;14.30;;;;;;;;;;772678;181;919062;-70
2021/05/25 05:47:13;;;;;;;21.70;16.27;;;;;;;;;;773455;178;918734;-70
2021/05/25 05:49:39;;;;;;;23.25;16.50;;;;;;;;;;777825;178;918183;-69
2021/05/25 05:52:05;;;;;;;22.73;15.60;;;;;;;;;;771483;177;918371;-70
2021/05/25 05:54:31;;;;;;;22.30;15.23;;;;;;;;;;778220;177;937179;-70
2021/05/25 05:56:57;;;;;;;18.62;14.15;;;;;;;;;;776459;180;918716;-70
2021/05/25 05:59:23;;;;;;;15.27;12.13;;;;;;;;;;774553;178;920098;-70
2021/05/25 06:01:49;;;;;;;18.40;12.50;;;;;;;;;;774874;178;919011;-71
2021/05/25 06:04:15;;;;;;;16.13;11.60;;;;;;;;;;768399;180;919951;-70
2021/05/25 06:06:40;;;;;;;17.70;12.40;;;;;;;;;;781665;180;919149;-71
2021/05/25 06:09:06;;;;;;;11.00;9.90;;;;;;;;;;778893;177;642380;-71
2021/05/25 06:11:32;;;;;;;18.83;11.50;;;;;;;;;;772268;179;923295;-70
2021/05/25 06:13:58;;;;;;;11.97;10.60;;;;;;;;;;776556;180;918736;-71
2021/05/25 06:16:24;;;;;;;13.93;11.13;;;;;;;;;;773462;180;918301;-70
2021/05/25 06:18:50;;;;;;;12.90;9.90;;;;;;;;;;772633;180;919296;-71
2021/05/25 06:21:16;;;;;;;12.17;10.50;;;;;;;;;;781268;178;915126;-70
2021/05/25 06:23:41;;;;;;;11.67;10.00;;;;;;;;;;770495;180;920226;-71
2021/05/25 06:26:07;;;;;;;15.47;10.83;;;;;;;;;;775234;178;707084;-71
2021/05/25 06:28:33;;;;;;;14.30;11.50;;;;;;;;;;773566;178;918461;-70
2021/05/25 06:30:59;;;;;;;11.50;10.30;;;;;;;;;;776234;180;918477;-71
2021/05/25 06:33:25;;;;;;;13.80;11.37;;;;;;;;;;772175;180;919313;-71
2021/05/25 06:35:51;;;;;;;16.17;11.50;;;;;;;;;;775958;178;886476;-70
2021/05/25 06:38:16;;;;;;;13.10;11.43;;;;;;;;;;778074;180;916827;-69
2021/05/25 06:40:42;;;;;;;12.93;11.23;;;;;;;;;;778867;178;915669;-69
2021/05/25 06:43:08;;;;;;;16.13;12.63;;;;;;;;;;760502;182;916145;-68
2021/05/25 06:45:34;;;;;;;13.97;11.47;;;;;;;;;;778618;180;916528;-71
2021/05/25 06:48:00;;;;;;;12.90;11.37;;;;;;;;;;775759;179;915378;-70
2021/05/25 06:50:26;;;;;;;13.30;10.87;;;;;;;;;;776172;177;916034;-71
2021/05/25 06:52:52;;;;;;;13.07;10.68;;;;;;;;;;768402;181;923741;-69
2021/05/25 06:55:18;;;;;;;12.43;10.90;;;;;;;;;;773096;180;916334;-71
2021/05/25 06:57:43;;;;;;;13.97;12.47;;;;;;;;;;769691;178;915931;-70
2021/05/25 07:00:10;;;;;;;12.52;11.10;;;;;;;;;;776349;178;915445;-72
2021/05/25 07:02:37;;;;;;;14.80;11.70;;;;;;;;;;781892;178;914964;-70
2021/05/25 07:05:03;;;;;;;13.90;11.10;;;;;;;;;;773865;177;920179;-71
2021/05/25 07:07:27;;;;;;;13.00;11.10;;;;;;;;;;774293;180;916599;-71
2021/05/25 07:09:53;;;;;;;14.23;11.00;;;;;;;;;;780555;179;914905;-71
2021/05/25 07:12:19;;;;;;;11.93;9.37;;;;;;;;;;773944;178;921366;-72
2021/05/25 07:14:45;;;;;;;11.77;9.50;;;;;;;;;;773210;177;915451;-72
2021/05/25 07:17:11;;;;;;;12.77;10.33;;;;;;;;;;784213;177;618309;-73
2021/05/25 07:19:36;;;;;;;11.10;9.30;;;;;;;;;;771209;180;623460;-73
2021/05/25 07:22:02;;;;;;;10.43;9.37;;;;;;;;;;776277;180;626019;-72
2021/05/25 07:24:28;;;;;;;11.27;9.97;;;;;;;;;;777687;180;624678;-72
2021/05/25 07:26:54;;;;;;;11.33;10.13;;;;;;;;;;782055;181;625674;-73
2021/05/25 07:29:20;;;;;;;10.87;9.37;;;;;;;;;;780392;180;633948;-73
2021/05/25 07:31:46;;;;;;;11.30;9.60;;;;;;;;;;774903;180;630129;-70
2021/05/25 07:34:12;;;;;;;11.00;9.10;;;;;;;;;;772368;180;648285;-70
2021/05/25 07:36:37;;;;;;;12.03;9.07;;;;;;;;;;775899;180;629010;-71
2021/05/25 07:39:03;;;;;;;10.90;9.60;;;;;;;;;;778027;180;619092;-71
2021/05/25 07:41:29;;;;;;;14.47;9.20;;;;;;;;;;780255;180;713724;-71
2021/05/25 07:43:55;;;;;;;12.03;9.73;;;;;;;;;;765844;181;918777;-71
2021/05/25 07:46:26;;;;;;;10.47;8.90;;;;;;;;;;773944;180;919276;-71
2021/05/25 07:48:52;;;;;;;9.68;8.63;;;;;;;;;;771920;180;921025;-68
2021/05/25 07:51:17;;;;;;;9.90;8.40;;;;;;;;;;779386;180;907708;-69
2021/05/25 07:53:43;;;;;;;8.43;7.50;;;;;;;;;;770443;181;919449;-71
2021/05/25 07:56:09;;;;;;;9.10;8.20;;;;;;;;;;771183;180;919772;-69
2021/05/25 07:58:35;;;;;;;4.33;3.67;;;;;;;;;;777267;180;918906;-69
2021/05/25 08:01:01;;;;;;;4.73;4.00;;;;;;;;;;771811;180;919569;-70
2021/05/25 08:03:27;;;;;;;4.87;3.30;;;;;;;;;;774522;179;1007138;-70
2021/05/25 08:05:53;;;;;;;3.60;3.13;;;;;;;;;;777576;180;919530;-71
2021/05/25 08:08:18;;;;;;;3.90;3.23;;;;;;;;;;771988;181;920064;-69
2021/05/25 08:10:44;;;;;;;5.40;3.80;;;;;;;;;;768624;179;2217017;-71
2021/05/25 08:13:10;;;;;;;4.93;4.27;;;;;;;;;;776816;180;919788;-69
2021/05/25 08:15:38;;;;;;;5.40;4.20;;;;;;;;;;784238;180;625018;-70
2021/05/25 08:18:08;;;;;;;3.67;2.70;;;;;;;;;;776731;181;633717;-70
2021/05/25 08:20:27;;;;;;;4.70;4.20;;;;;;;;;;775417;180;638625;-70
2021/05/25 08:22:53;;;;;;;4.30;3.30;;;;;;;;;;777585;180;919568;-70
2021/05/25 08:25:19;;;;;;;4.00;2.33;;;;;;;;;;771632;180;897454;-68
2021/05/25 08:27:46;;;;;;;3.50;2.50;;;;;;;;;;774987;179;919126;-69
2021/05/25 08:30:12;;;;;;;3.37;1.60;;;;;;;;;;776912;180;924290;-70
2021/05/25 08:32:38;;;;;;;3.73;1.50;;;;;;;;;;777615;180;864706;-71
2021/05/25 08:35:04;;;;;;;3.80;1.97;;;;;;;;;;771734;178;919367;-70
2021/05/25 08:37:32;;;;;;;9.60;1.60;;;;;;;;;;773828;180;914064;-70
2021/05/25 08:39:56;;;;;;;2.00;1.20;;;;;;;;;;778337;180;918189;-68
2021/05/25 08:42:22;;;;;;;2.53;1.33;;;;;;;;;;773746;178;918484;-69
2021/05/25 08:44:48;;;;;;;6.60;1.60;;;;;;;;;;765270;181;919317;-68
2021/05/25 08:47:13;;;;;;;2.43;1.50;;;;;;;;;;767804;180;624271;-68
2021/05/25 08:49:39;;;;;;;1.93;1.20;;;;;;;;;;774747;180;632540;-70
2021/05/25 08:52:06;;;;;;;3.87;2.03;;;;;;;;;;775532;180;631137;-68
2021/05/25 08:54:31;;;;;;;2.30;1.50;;;;;;;;;;781830;178;895857;-69
2021/05/25 08:56:57;;;;;;;4.60;2.00;;;;;;;;;;773870;180;919170;-68
2021/05/25 08:59:23;;;;;;;2.00;1.23;;;;;;;;;;771036;179;1021240;-70
2021/05/25 09:01:50;;;;;;;5.90;1.40;;;;;;;;;;772104;180;918316;-68
2021/05/25 09:04:17;;;;;;;4.67;1.30;;;;;;;;;;773619;180;918737;-70
2021/05/25 09:06:42;;;;;;;4.03;1.23;;;;;;;;;;775094;180;919321;-70
2021/05/25 09:09:08;;;;;;;2.33;2.13;;;;;;;;;;773904;180;918847;-71
2021/05/25 09:11:34;;;;;;;4.50;1.23;;;;;;;;;;780672;180;921064;-68
2021/05/25 09:14:06;;;;;;;4.07;2.70;;;;;;;;;;771700;179;919223;-69
2021/05/25 09:16:31;;;;;;;2.93;1.10;;;;;;;;;;771260;180;908772;-68
2021/05/25 09:18:58;;;;;;;3.62;1.80;;;;;;;;;;777578;180;918884;-67
2021/05/25 09:21:28;;;;;;;4.07;3.30;;;;;;;;;;772892;180;919392;-69
2021/05/25 09:23:54;;;;;;;4.10;1.27;;;;;;;;;;779192;176;662370;-68
2021/05/25 09:26:26;;;;;;;4.93;1.20;;;;;;;;;;771731;180;918554;-69
2021/05/25 09:28:56;;;;;;;1.70;1.00;;;;;;;;;;780883;181;919545;-67
2021/05/25 09:31:40;;;;;;;2.80;1.30;;;;;;;;;;781413;177;920395;-68
2021/05/25 09:34:08;;;;;;;3.00;1.33;;;;;;;;;;779203;177;629991;-69
2021/05/25 09:36:33;;;;;;;2.40;0.97;;;;;;;;;;761335;180;857861;-68
2021/05/25 09:39:04;;;;;;;1.98;1.00;;;;;;;;;;773607;177;1010861;-68
2021/05/25 09:41:30;;;;;;;2.27;1.10;;;;;;;;;;776211;178;915393;-67
2021/05/25 09:43:55;;;;;;;3.80;1.20;;;;;;;;;;770321;178;892298;-68
2021/05/25 09:46:22;;;;;;;2.30;1.03;;;;;;;;;;773005;177;907366;-67
2021/05/25 09:48:54;;;;;;;4.37;1.30;;;;;;;;;;773826;180;925136;-68
2021/05/25 09:51:23;;;;;;;6.30;1.17;;;;;;;;;;775694;180;1095303;-68
2021/05/25 09:53:49;;;;;;;4.55;1.10;;;;;;;;;;769639;180;918940;-69
2021/05/25 09:56:22;;;;;;;5.67;1.27;;;;;;;;;;769563;180;919111;-69
2021/05/25 09:58:48;;;;;;;1.97;1.00;;;;;;;;;;771799;180;919278;-69
2021/05/25 10:01:14;;;;;;;2.00;1.20;;;;;;;;;;769223;180;2147258;-69
2021/05/25 10:03:42;;;;;;;2.27;1.10;;;;;;;;;;770061;180;919552;-69
2021/05/25 10:06:08;;;;;;;2.47;1.23;;;;;;;;;;774640;180;920085;-70
2021/05/25 10:08:34;;;;;;;2.67;1.53;;;;;;;;;;775814;180;919844;-70
2021/05/25 10:11:00;;;;;;;2.10;1.20;;;;;;;;;;762301;181;918861;-70
2021/05/25 10:13:25;;;;;;;3.40;1.60;;;;;;;;;;773289;177;919326;-71
2021/05/25 10:15:52;;;;;;;6.73;3.20;;;;;;;;;;765822;180;919585;-71
2021/05/25 10:18:33;;;;;;;2.20;1.23;;;;;;;;;;776977;181;919567;-70
2021/05/25 10:20:43;;;;;;;4.82;1.50;;;;;;;;;;766450;178;919417;-70
2021/05/25 10:23:09;;;;;;;2.83;1.33;;;;;;;;;;773353;177;919681;-70
2021/05/25 10:25:35;;;;;;;4.23;1.50;;;;;;;;;;778148;177;918875;-70
2021/05/25 10:28:01;;;;;;;4.67;1.40;;;;;;;;;;771330;179;919769;-70
2021/05/25 10:30:34;;;;;;;2.90;1.63;;;;;;;;;;774557;179;918324;-70
2021/05/25 10:33:19;;;;;;;2.80;1.20;;;;;;;;;;773879;180;925405;-70
2021/05/25 10:35:50;;;;;;;3.58;2.12;;;;;;;;;;774580;178;920344;-70
2021/05/25 10:38:15;;;;;;;2.47;1.60;;;;;;;;;;779968;180;1131956;-69
2021/05/25 10:40:41;;;;;;;2.10;1.37;;;;;;;;;;773964;178;925251;-70
2021/05/25 10:43:13;;;;;;;4.00;1.63;;;;;;;;;;775654;179;915111;-70
2021/05/25 10:45:39;;;;;;;2.77;1.70;;;;;;;;;;774958;180;919483;-70
2021/05/25 10:48:08;;;;;;;2.20;1.30;;;;;;;;;;777682;180;958276;-69
2021/05/25 10:50:37;;;;;;;2.30;1.20;;;;;;;;;;777173;180;629539;-72
2021/05/25 10:53:14;;;;;;;6.73;1.70;;;;;;;;;;775688;180;611511;-70
2021/05/25 10:55:42;;;;;;;3.50;1.30;;;;;;;;;;773784;177;674895;-70
2021/05/25 10:58:28;;;;;;;2.80;1.47;;;;;;;;;;772458;178;639285;-70
2021/05/25 11:00:49;;;;;;;2.73;1.37;;;;;;;;;;769142;178;880091;-70
2021/05/25 11:03:18;;;;;;;3.60;1.40;;;;;;;;;;776075;180;919884;-70
2021/05/25 11:05:44;;;;;;;3.40;1.77;;;;;;;;;;769522;180;919652;-71
2021/05/25 11:08:25;;;;;;;10.93;2.13;;;;;;;;;;775244;180;621988;-70
2021/05/25 11:10:53;;;;;;;5.43;1.60;;;;;;;;;;772739;178;919310;-70
2021/05/25 11:13:25;;;;;;;3.70;1.37;;;;;;;;;;774355;179;923419;-69
2021/05/25 11:15:56;;;;;;;2.20;1.30;;;;;;;;;;771786;177;919540;-69
2021/05/25 11:18:25;;;;;;;2.05;1.25;;;;;;;;;;774215;180;918841;-69
2021/05/25 11:21:30;;;;;;;2.93;1.90;;;;;;;;;;773199;180;637298;-70
2021/05/25 11:23:37;;;;;;;3.13;1.47;;;;;;;;;;771523;180;919177;-71
2021/05/25 11:26:03;;;;;;;2.70;1.90;;;;;;;;;;780332;181;918223;-70
2021/05/25 11:28:29;;;;;;;4.50;1.67;;;;;;;;;;773712;180;919173;-71
2021/05/25 11:30:55;;;;;;;2.27;1.40;;;;;;;;;;768317;180;918812;-70
2021/05/25 11:33:21;;;;;;;2.57;1.57;;;;;;;;;;769883;180;918859;-70
2021/05/25 11:35:50;;;;;;;3.23;1.70;;;;;;;;;;767288;180;919590;-71
2021/05/25 11:38:12;;;;;;;3.22;1.60;;;;;;;;;;775545;179;919269;-70
2021/05/25 11:40:39;;;;;;;2.83;1.33;;;;;;;;;;774217;180;918246;-70
2021/05/25 11:43:05;;;;;;;5.70;1.60;;;;;;;;;;782083;180;637560;-72
2021/05/25 11:45:30;;;;;;;2.20;1.40;;;;;;;;;;774680;178;919553;-71
2021/05/25 11:47:56;;;;;;;4.70;1.60;;;;;;;;;;779657;177;865580;-70
2021/05/25 11:50:22;;;;;;;3.17;1.50;;;;;;;;;;782212;180;919643;-71
2021/05/25 11:52:50;;;;;;;2.63;1.67;;;;;;;;;;768575;179;2033022;-70
2021/05/25 11:55:14;;;;;;;2.43;1.40;;;;;;;;;;774750;179;919434;-71
2021/05/25 11:57:41;;;;;;;2.93;1.60;;;;;;;;;;786024;180;623434;-71
2021/05/25 12:00:22;;;;;;;3.90;1.57;;;;;;;;;;772408;177;630278;-71
2021/05/25 12:02:49;;;;;;;2.67;1.37;;;;;;;;;;774348;178;618755;-71
2021/05/25 12:05:18;;;;;;;2.70;1.53;;;;;;;;;;775313;178;919739;-72
2021/05/25 12:07:42;;;;;;;4.00;1.40;;;;;;;;;;773089;180;922431;-71
2021/05/25 12:10:10;;;;;;;2.53;1.40;;;;;;;;;;779244;180;930497;-70
2021/05/25 12:12:39;;;;;;;2.67;1.60;;;;;;;;;;772424;180;919574;-71
2021/05/25 12:15:02;;;;;;;3.07;1.73;;;;;;;;;;774742;180;1020849;-71
2021/05/25 12:17:29;;;;;;;2.03;1.30;;;;;;;;;;777686;180;633410;-72
2021/05/25 12:19:55;;;;;;;7.10;1.60;;;;;;;;;;772176;180;1025451;-71
2021/05/25 12:22:36;;;;;;;9.10;2.20;;;;;;;;;;771840;178;915965;-71
2021/05/25 12:25:07;;;;;;;7.43;2.17;;;;;;;;;;774823;180;790350;-70
2021/05/25 12:27:34;;;;;;;2.43;1.20;;;;;;;;;;767121;180;914524;-71
2021/05/25 12:30:00;;;;;;;2.43;1.60;;;;;;;;;;778917;180;915296;-71
2021/05/25 12:32:25;;;;;;;9.30;2.03;;;;;;;;;;774497;178;915374;-71
2021/05/25 12:34:51;;;;;;;2.83;1.60;;;;;;;;;;777381;180;617769;-72
2021/05/25 12:37:17;;;;;;;4.30;1.70;;;;;;;;;;781739;178;635220;-71
2021/05/25 12:39:43;;;;;;;4.57;2.20;;;;;;;;;;778770;180;633238;-71
2021/05/25 12:42:12;;;;;;;5.90;2.20;;;;;;;;;;775231;179;631497;-71
2021/05/25 12:44:37;;;;;;;4.80;2.00;;;;;;;;;;776304;180;633563;-71
2021/05/25 12:47:05;;;;;;;3.50;1.63;;;;;;;;;;772236;180;617378;-71
2021/05/25 12:49:32;;;;;;;6.10;1.67;;;;;;;;;;763835;180;628950;-71
2021/05/25 12:52:04;;;;;;;10.27;1.90;;;;;;;;;;772560;181;918488;-71
2021/05/25 12:54:29;;;;;;;4.07;1.77;;;;;;;;;;780801;180;627152;-71
2021/05/25 12:56:55;;;;;;;3.97;1.90;;;;;;;;;;779575;179;627884;-71
2021/05/25 12:59:21;;;;;;;6.73;1.57;;;;;;;;;;775513;177;701446;-71
2021/05/25 13:01:47;;;;;;;2.87;1.50;;;;;;;;;;770666;180;913673;-71
2021/05/25 13:04:20;;;;;;;2.73;1.63;;;;;;;;;;783364;177;913749;-71
2021/05/25 13:06:53;;;;;;;3.43;1.47;;;;;;;;;;778655;178;619294;-72
2021/05/25 13:09:20;;;;;;;2.33;1.50;;;;;;;;;;770694;177;912584;-71
2021/05/25 13:11:50;;;;;;;4.40;2.00;;;;;;;;;;769039;180;912205;-71
2021/05/25 13:14:17;;;;;;;3.93;1.90;;;;;;;;;;773126;180;912146;-71
2021/05/25 13:16:43;;;;;;;4.93;1.93;;;;;;;;;;770745;179;912554;-71
2021/05/25 13:19:08;;;;;;;7.43;2.47;;;;;;;;;;771951;177;915896;-72
2021/05/25 13:21:34;;;;;;;4.47;1.95;;;;;;;;;;775246;177;921669;-72
2021/05/25 13:24:00;;;;;;;3.17;1.80;;;;;;;;;;774088;178;916458;-71
2021/05/25 13:26:30;;;;;;;2.47;1.63;;;;;;;;;;775265;178;917181;-73
2021/05/25 13:28:55;;;;;;;4.20;2.07;;;;;;;;;;771965;180;916473;-71
2021/05/25 13:31:21;;;;;;;4.90;1.80;;;;;;;;;;779684;179;912728;-71
2021/05/25 13:33:48;;;;;;;4.53;1.87;;;;;;;;;;774320;177;920824;-71
2021/05/25 13:36:13;;;;;;;4.85;1.85;;;;;;;;;;767212;178;1662045;-72
2021/05/25 13:38:40;;;;;;;3.80;1.50;;;;;;;;;;777853;180;915462;-72
2021/05/25 13:41:05;;;;;;;2.80;1.80;;;;;;;;;;763331;180;919743;-71
2021/05/25 13:43:31;;;;;;;2.70;1.57;;;;;;;;;;772302;177;920058;-71
2021/05/25 13:45:57;;;;;;;4.32;2.12;;;;;;;;;;772903;180;918916;-71
2021/05/25 13:48:23;;;;;;;3.40;2.03;;;;;;;;;;774682;177;919414;-72
2021/05/25 13:50:58;;;;;;;4.37;1.40;;;;;;;;;;770264;177;919315;-72
2021/05/25 13:53:24;;;;;;;2.63;1.70;;;;;;;;;;761044;180;921659;-72
2021/05/25 13:55:50;;;;;;;8.97;2.77;;;;;;;;;;779133;180;908356;-72
2021/05/25 13:58:19;;;;;;;5.47;1.90;;;;;;;;;;768966;179;918879;-73
2021/05/25 14:03:14;;;;;;;5.20;1.30;;;;;;;;;;774966;181;917966;-73
2021/05/25 14:05:40;;;;;;;4.00;1.70;;;;;;;;;;782435;177;919124;-72
2021/05/25 14:08:06;;;;;;;4.50;1.90;;;;;;;;;;775991;179;920220;-71
2021/05/25 14:10:35;;;;;;;3.07;1.77;;;;;;;;;;774914;179;1018199;-74
2021/05/25 14:12:58;;;;;;;4.73;1.60;;;;;;;;;;778853;177;917248;-72
2021/05/25 14:15:24;;;;;;;5.60;2.20;;;;;;;;;;771322;178;922458;-72
2021/05/25 14:17:50;;;;;;;4.53;1.70;;;;;;;;;;774914;180;619873;-73
2021/05/25 14:20:16;;;;;;;4.17;2.03;;;;;;;;;;776110;180;918338;-73
2021/05/25 14:22:41;;;;;;;3.97;1.90;;;;;;;;;;779978;180;922707;-72
2021/05/25 14:25:08;;;;;;;3.37;1.70;;;;;;;;;;773619;180;918562;-72